Cathay, North Dakota
Current Conditions -  °F | °C
As of 10:15 AM on Thursday 30 Oct 2014 (Local Time) from K46D Reporting Station
Overcast Overcast  
Wind Chill: 25°   Ceiling: 800
Heat Index: 32°   Visibility: 8mi
Dew Point: 32°   Wind: 8mph
Humidity: 100%   Direction: 350°N
Pressure: 30.29"   Gusts: 16mph
Location:  47.55°N, 99.41°W
Report Text: K46D 301515Z AUTO 35007G14KT 8SM OVC008 00/00 A3029 RMK AO2
Loading
Personal Weather Stations






























Interactive Weather Map New forecast layout! Learn more

10-Day Weather Forecast

Advertisements
Track Severe Weather on mobile